sensor_id;sensor_type;location;lat;lon;timestamp;temperature;humidity
75321;DHT22;63920;52.130;5.584;2022-12-24T00:01:57;10.00;99.90
75321;DHT22;63920;52.130;5.584;2022-12-24T00:04:22;10.00;99.90
75321;DHT22;63920;52.130;5.584;2022-12-24T00:06:48;10.00;99.90
75321;DHT22;63920;52.130;5.584;2022-12-24T00:09:13;10.00;99.90
75321;DHT22;63920;52.130;5.584;2022-12-24T00:11:39;9.90;99.90
75321;DHT22;63920;52.130;5.584;2022-12-24T00:14:04;10.00;99.90
75321;DHT22;63920;52.130;5.584;2022-12-24T00:16:30;9.90;99.90
75321;DHT22;63920;52.130;5.584;2022-12-24T00:18:55;9.90;99.90
75321;DHT22;63920;52.130;5.584;2022-12-24T00:21:21;9.90;99.90
75321;DHT22;63920;52.130;5.584;2022-12-24T00:23:47;9.90;99.90
75321;DHT22;63920;52.130;5.584;2022-12-24T00:26:13;9.90;99.90
75321;DHT22;63920;52.130;5.584;2022-12-24T00:28:39;9.90;99.90
75321;DHT22;63920;52.130;5.584;2022-12-24T00:31:13;9.90;99.90
75321;DHT22;63920;52.130;5.584;2022-12-24T00:33:39;9.80;99.90
75321;DHT22;63920;52.130;5.584;2022-12-24T00:36:11;9.90;99.90
75321;DHT22;63920;52.130;5.584;2022-12-24T00:38:37;9.90;99.90
75321;DHT22;63920;52.130;5.584;2022-12-24T00:41:04;10.00;99.90
75321;DHT22;63920;52.130;5.584;2022-12-24T00:43:31;10.00;99.90
75321;DHT22;63920;52.130;5.584;2022-12-24T00:45:57;10.00;99.90
75321;DHT22;63920;52.130;5.584;2022-12-24T00:48:23;10.00;99.90
75321;DHT22;63920;52.130;5.584;2022-12-24T00:50:50;10.00;99.90
75321;DHT22;63920;52.130;5.584;2022-12-24T00:53:18;9.90;99.90
75321;DHT22;63920;52.130;5.584;2022-12-24T00:55:44;9.90;99.90
75321;DHT22;63920;52.130;5.584;2022-12-24T00:58:10;9.90;99.90
75321;DHT22;63920;52.130;5.584;2022-12-24T01:00:36;9.90;99.90
75321;DHT22;63920;52.130;5.584;2022-12-24T01:03:01;9.90;99.90
75321;DHT22;63920;52.130;5.584;2022-12-24T01:05:27;9.90;99.90
75321;DHT22;63920;52.130;5.584;2022-12-24T01:07:52;9.80;99.90
75321;DHT22;63920;52.130;5.584;2022-12-24T01:10:19;9.80;99.90
75321;DHT22;63920;52.130;5.584;2022-12-24T01:12:47;9.80;99.90
75321;DHT22;63920;52.130;5.584;2022-12-24T01:15:13;9.80;99.90
75321;DHT22;63920;52.130;5.584;2022-12-24T01:17:39;9.70;99.90
75321;DHT22;63920;52.130;5.584;2022-12-24T01:20:07;9.70;99.90
75321;DHT22;63920;52.130;5.584;2022-12-24T01:22:33;9.70;99.90
75321;DHT22;63920;52.130;5.584;2022-12-24T01:24:58;9.60;99.90
75321;DHT22;63920;52.130;5.584;2022-12-24T01:27:24;9.60;99.90
75321;DHT22;63920;52.130;5.584;2022-12-24T01:29:49;9.60;99.90
75321;DHT22;63920;52.130;5.584;2022-12-24T01:32:15;9.60;99.90
75321;DHT22;63920;52.130;5.584;2022-12-24T01:34:41;9.80;99.90
75321;DHT22;63920;52.130;5.584;2022-12-24T01:37:07;9.50;99.90
75321;DHT22;63920;52.130;5.584;2022-12-24T01:39:32;9.50;99.90
75321;DHT22;63920;52.130;5.584;2022-12-24T01:41:58;9.40;99.90
75321;DHT22;63920;52.130;5.584;2022-12-24T01:44:45;9.40;99.90
75321;DHT22;63920;52.130;5.584;2022-12-24T01:49:43;9.30;99.90
75321;DHT22;63920;52.130;5.584;2022-12-24T01:52:17;9.30;99.90
75321;DHT22;63920;52.130;5.584;2022-12-24T01:54:49;9.30;99.90
75321;DHT22;63920;52.130;5.584;2022-12-24T01:57:23;9.20;99.90
75321;DHT22;63920;52.130;5.584;2022-12-24T01:59:54;9.20;99.90
75321;DHT22;63920;52.130;5.584;2022-12-24T02:02:20;9.10;99.90
75321;DHT22;63920;52.130;5.584;2022-12-24T02:05:01;9.20;99.90
75321;DHT22;63920;52.130;5.584;2022-12-24T02:07:27;9.10;99.90
75321;DHT22;63920;52.130;5.584;2022-12-24T02:09:56;9.10;99.90
75321;DHT22;63920;52.130;5.584;2022-12-24T02:12:22;9.00;99.90
75321;DHT22;63920;52.130;5.584;2022-12-24T02:14:48;9.00;99.90
75321;DHT22;63920;52.130;5.584;2022-12-24T02:22:50;8.90;99.90
75321;DHT22;63920;52.130;5.584;2022-12-24T02:30:42;8.80;99.90
75321;DHT22;63920;52.130;5.584;2022-12-24T02:36:10;8.80;99.90
75321;DHT22;63920;52.130;5.584;2022-12-24T02:38:52;8.80;99.90
75321;DHT22;63920;52.130;5.584;2022-12-24T02:41:30;8.80;99.90
75321;DHT22;63920;52.130;5.584;2022-12-24T02:44:21;8.70;99.90
75321;DHT22;63920;52.130;5.584;2022-12-24T02:46:49;8.70;99.90
75321;DHT22;63920;52.130;5.584;2022-12-24T02:49:15;8.70;99.90
75321;DHT22;63920;52.130;5.584;2022-12-24T02:51:40;8.80;99.90
75321;DHT22;63920;52.130;5.584;2022-12-24T02:54:06;8.70;99.90
75321;DHT22;63920;52.130;5.584;2022-12-24T02:59:31;8.60;99.90
75321;DHT22;63920;52.130;5.584;2022-12-24T03:10:38;8.50;99.90
75321;DHT22;63920;52.130;5.584;2022-12-24T03:13:12;8.50;99.90
75321;DHT22;63920;52.130;5.584;2022-12-24T03:15:38;8.50;99.90
75321;DHT22;63920;52.130;5.584;2022-12-24T03:18:06;8.60;99.90
75321;DHT22;63920;52.130;5.584;2022-12-24T03:20:41;8.50;99.90
75321;DHT22;63920;52.130;5.584;2022-12-24T03:23:08;8.50;99.90
75321;DHT22;63920;52.130;5.584;2022-12-24T03:25:34;8.50;99.90
75321;DHT22;63920;52.130;5.584;2022-12-24T03:28:04;8.50;99.90
75321;DHT22;63920;52.130;5.584;2022-12-24T03:30:30;8.40;99.90
75321;DHT22;63920;52.130;5.584;2022-12-24T03:32:56;8.40;99.90
75321;DHT22;63920;52.130;5.584;2022-12-24T03:35:22;8.50;99.90
75321;DHT22;63920;52.130;5.584;2022-12-24T03:37:47;8.50;99.90
75321;DHT22;63920;52.130;5.584;2022-12-24T03:40:13;8.50;99.90
75321;DHT22;63920;52.130;5.584;2022-12-24T03:42:38;8.60;99.90
75321;DHT22;63920;52.130;5.584;2022-12-24T03:45:04;8.60;99.90
75321;DHT22;63920;52.130;5.584;2022-12-24T03:47:30;8.60;99.90
75321;DHT22;63920;52.130;5.584;2022-12-24T03:49:56;8.60;99.90
75321;DHT22;63920;52.130;5.584;2022-12-24T03:52:21;8.60;99.90
75321;DHT22;63920;52.130;5.584;2022-12-24T03:54:47;8.60;99.90
75321;DHT22;63920;52.130;5.584;2022-12-24T03:57:12;8.60;99.90
75321;DHT22;63920;52.130;5.584;2022-12-24T03:59:38;8.60;99.90
75321;DHT22;63920;52.130;5.584;2022-12-24T04:02:03;8.70;99.90
75321;DHT22;63920;52.130;5.584;2022-12-24T04:04:29;8.70;99.90
75321;DHT22;63920;52.130;5.584;2022-12-24T04:06:54;8.80;99.90
75321;DHT22;63920;52.130;5.584;2022-12-24T04:09:20;8.80;99.90
75321;DHT22;63920;52.130;5.584;2022-12-24T04:11:45;8.80;99.90
75321;DHT22;63920;52.130;5.584;2022-12-24T04:14:11;8.80;99.90
75321;DHT22;63920;52.130;5.584;2022-12-24T04:16:36;8.80;99.90
75321;DHT22;63920;52.130;5.584;2022-12-24T04:19:02;8.90;99.90
75321;DHT22;63920;52.130;5.584;2022-12-24T04:21:27;8.90;99.90
75321;DHT22;63920;52.130;5.584;2022-12-24T04:23:53;8.90;99.90
75321;DHT22;63920;52.130;5.584;2022-12-24T04:26:19;8.90;99.90
75321;DHT22;63920;52.130;5.584;2022-12-24T04:28:44;8.90;99.90
75321;DHT22;63920;52.130;5.584;2022-12-24T04:31:15;9.00;99.90
75321;DHT22;63920;52.130;5.584;2022-12-24T04:33:41;9.00;99.90
75321;DHT22;63920;52.130;5.584;2022-12-24T04:36:07;9.00;99.90
75321;DHT22;63920;52.130;5.584;2022-12-24T04:38:34;9.00;99.90
75321;DHT22;63920;52.130;5.584;2022-12-24T04:41:12;9.00;99.90
75321;DHT22;63920;52.130;5.584;2022-12-24T04:43:37;9.10;99.90
75321;DHT22;63920;52.130;5.584;2022-12-24T04:46:11;9.10;99.90
75321;DHT22;63920;52.130;5.584;2022-12-24T04:48:39;9.10;99.90
75321;DHT22;63920;52.130;5.584;2022-12-24T04:51:06;9.10;99.90
75321;DHT22;63920;52.130;5.584;2022-12-24T04:53:33;9.20;99.90
75321;DHT22;63920;52.130;5.584;2022-12-24T04:55:59;9.20;99.90
75321;DHT22;63920;52.130;5.584;2022-12-24T04:58:24;9.20;99.90
75321;DHT22;63920;52.130;5.584;2022-12-24T05:00:50;9.20;99.90
75321;DHT22;63920;52.130;5.584;2022-12-24T05:03:16;9.20;99.90
75321;DHT22;63920;52.130;5.584;2022-12-24T05:05:41;9.20;99.90
75321;DHT22;63920;52.130;5.584;2022-12-24T05:08:07;9.30;99.90
75321;DHT22;63920;52.130;5.584;2022-12-24T05:10:32;9.30;99.90
75321;DHT22;63920;52.130;5.584;2022-12-24T05:12:58;9.30;99.90
75321;DHT22;63920;52.130;5.584;2022-12-24T05:15:24;9.30;99.90
75321;DHT22;63920;52.130;5.584;2022-12-24T05:17:49;9.30;99.90
75321;DHT22;63920;52.130;5.584;2022-12-24T05:20:15;9.30;99.90
75321;DHT22;63920;52.130;5.584;2022-12-24T05:22:41;9.30;99.90
75321;DHT22;63920;52.130;5.584;2022-12-24T05:25:32;9.30;99.90
75321;DHT22;63920;52.130;5.584;2022-12-24T05:28:19;9.30;99.90
75321;DHT22;63920;52.130;5.584;2022-12-24T05:30:44;9.30;99.90
75321;DHT22;63920;52.130;5.584;2022-12-24T05:33:10;9.30;99.90
75321;DHT22;63920;52.130;5.584;2022-12-24T05:35:35;9.30;99.90
75321;DHT22;63920;52.130;5.584;2022-12-24T05:38:01;9.40;99.90
75321;DHT22;63920;52.130;5.584;2022-12-24T05:40:26;9.30;99.90
75321;DHT22;63920;52.130;5.584;2022-12-24T05:42:52;9.30;99.90
75321;DHT22;63920;52.130;5.584;2022-12-24T05:45:18;9.40;99.90
75321;DHT22;63920;52.130;5.584;2022-12-24T05:47:43;9.40;99.90
75321;DHT22;63920;52.130;5.584;2022-12-24T05:50:09;9.40;99.90
75321;DHT22;63920;52.130;5.584;2022-12-24T05:52:35;9.40;99.90
75321;DHT22;63920;52.130;5.584;2022-12-24T05:55:01;9.40;99.90
75321;DHT22;63920;52.130;5.584;2022-12-24T05:57:26;9.40;99.90
75321;DHT22;63920;52.130;5.584;2022-12-24T05:59:52;9.50;99.90
75321;DHT22;63920;52.130;5.584;2022-12-24T06:02:17;9.50;99.90
75321;DHT22;63920;52.130;5.584;2022-12-24T06:04:43;9.50;99.90
75321;DHT22;63920;52.130;5.584;2022-12-24T06:07:08;9.50;99.90
75321;DHT22;63920;52.130;5.584;2022-12-24T06:09:34;9.60;99.90
75321;DHT22;63920;52.130;5.584;2022-12-24T06:11:59;9.60;99.90
75321;DHT22;63920;52.130;5.584;2022-12-24T06:14:25;9.60;99.90
75321;DHT22;63920;52.130;5.584;2022-12-24T06:16:50;9.60;99.90
75321;DHT22;63920;52.130;5.584;2022-12-24T06:19:16;9.60;99.90
75321;DHT22;63920;52.130;5.584;2022-12-24T06:21:41;9.50;99.90
75321;DHT22;63920;52.130;5.584;2022-12-24T06:24:07;9.60;99.90
75321;DHT22;63920;52.130;5.584;2022-12-24T06:26:33;9.60;99.90
75321;DHT22;63920;52.130;5.584;2022-12-24T06:28:58;9.60;99.90
75321;DHT22;63920;52.130;5.584;2022-12-24T06:31:24;9.50;99.90
75321;DHT22;63920;52.130;5.584;2022-12-24T06:33:51;9.60;99.90
75321;DHT22;63920;52.130;5.584;2022-12-24T06:36:19;9.60;99.90
75321;DHT22;63920;52.130;5.584;2022-12-24T06:38:46;9.60;99.90
75321;DHT22;63920;52.130;5.584;2022-12-24T06:41:12;9.60;99.90
75321;DHT22;63920;52.130;5.584;2022-12-24T06:43:37;9.50;99.90
75321;DHT22;63920;52.130;5.584;2022-12-24T06:46:03;9.60;99.90
75321;DHT22;63920;52.130;5.584;2022-12-24T06:48:29;9.60;99.90
75321;DHT22;63920;52.130;5.584;2022-12-24T06:50:55;9.60;99.90
75321;DHT22;63920;52.130;5.584;2022-12-24T06:53:20;9.60;99.90
75321;DHT22;63920;52.130;5.584;2022-12-24T06:55:47;9.60;99.90
75321;DHT22;63920;52.130;5.584;2022-12-24T06:58:13;9.70;99.90
75321;DHT22;63920;52.130;5.584;2022-12-24T07:00:38;9.70;99.90
75321;DHT22;63920;52.130;5.584;2022-12-24T07:03:04;9.70;99.90
75321;DHT22;63920;52.130;5.584;2022-12-24T07:05:30;9.80;99.90
75321;DHT22;63920;52.130;5.584;2022-12-24T07:07:55;9.70;99.90
75321;DHT22;63920;52.130;5.584;2022-12-24T07:10:21;9.60;99.90
75321;DHT22;63920;52.130;5.584;2022-12-24T07:12:47;9.70;99.90
75321;DHT22;63920;52.130;5.584;2022-12-24T07:15:14;9.70;99.90
75321;DHT22;63920;52.130;5.584;2022-12-24T07:17:40;9.70;99.90
75321;DHT22;63920;52.130;5.584;2022-12-24T07:20:07;9.70;99.90
75321;DHT22;63920;52.130;5.584;2022-12-24T07:22:33;9.70;99.90
75321;DHT22;63920;52.130;5.584;2022-12-24T07:24:58;9.70;99.90
75321;DHT22;63920;52.130;5.584;2022-12-24T07:27:24;9.70;99.90
75321;DHT22;63920;52.130;5.584;2022-12-24T07:29:50;9.70;99.90
75321;DHT22;63920;52.130;5.584;2022-12-24T07:32:15;9.70;99.90
75321;DHT22;63920;52.130;5.584;2022-12-24T07:34:41;9.70;99.90
75321;DHT22;63920;52.130;5.584;2022-12-24T07:37:07;9.80;99.90
75321;DHT22;63920;52.130;5.584;2022-12-24T07:39:32;9.60;99.90
75321;DHT22;63920;52.130;5.584;2022-12-24T07:41:58;9.60;99.90
75321;DHT22;63920;52.130;5.584;2022-12-24T07:44:24;9.60;99.90
75321;DHT22;63920;52.130;5.584;2022-12-24T07:46:50;9.60;99.90
75321;DHT22;63920;52.130;5.584;2022-12-24T07:49:15;9.60;99.90
75321;DHT22;63920;52.130;5.584;2022-12-24T07:51:41;9.70;99.90
75321;DHT22;63920;52.130;5.584;2022-12-24T07:54:06;9.60;99.90
75321;DHT22;63920;52.130;5.584;2022-12-24T07:56:32;9.70;99.90
75321;DHT22;63920;52.130;5.584;2022-12-24T07:58:58;9.60;99.90
75321;DHT22;63920;52.130;5.584;2022-12-24T08:01:24;9.60;99.90
75321;DHT22;63920;52.130;5.584;2022-12-24T08:03:49;9.60;99.90
75321;DHT22;63920;52.130;5.584;2022-12-24T08:06:19;9.70;99.90
75321;DHT22;63920;52.130;5.584;2022-12-24T08:08:45;9.60;99.90
75321;DHT22;63920;52.130;5.584;2022-12-24T08:11:11;9.60;99.90
75321;DHT22;63920;52.130;5.584;2022-12-24T08:13:37;9.60;99.90
75321;DHT22;63920;52.130;5.584;2022-12-24T08:16:03;9.60;99.90
75321;DHT22;63920;52.130;5.584;2022-12-24T08:18:29;9.70;99.90
75321;DHT22;63920;52.130;5.584;2022-12-24T08:20:55;9.70;99.90
75321;DHT22;63920;52.130;5.584;2022-12-24T08:23:21;9.70;99.90
75321;DHT22;63920;52.130;5.584;2022-12-24T08:25:48;9.70;99.90
75321;DHT22;63920;52.130;5.584;2022-12-24T08:28:15;9.70;99.90
75321;DHT22;63920;52.130;5.584;2022-12-24T08:30:43;9.70;99.90
75321;DHT22;63920;52.130;5.584;2022-12-24T08:33:09;9.70;99.90
75321;DHT22;63920;52.130;5.584;2022-12-24T08:35:35;9.70;99.90
75321;DHT22;63920;52.130;5.584;2022-12-24T08:38:00;9.70;99.90
75321;DHT22;63920;52.130;5.584;2022-12-24T08:40:26;9.70;99.90
75321;DHT22;63920;52.130;5.584;2022-12-24T08:42:52;9.70;99.90
75321;DHT22;63920;52.130;5.584;2022-12-24T08:45:18;9.70;99.90
75321;DHT22;63920;52.130;5.584;2022-12-24T08:47:43;9.70;99.90
75321;DHT22;63920;52.130;5.584;2022-12-24T08:50:10;9.70;99.90
75321;DHT22;63920;52.130;5.584;2022-12-24T08:52:36;9.70;99.90
75321;DHT22;63920;52.130;5.584;2022-12-24T08:55:02;9.70;99.90
75321;DHT22;63920;52.130;5.584;2022-12-24T08:57:27;9.80;99.90
75321;DHT22;63920;52.130;5.584;2022-12-24T08:59:53;9.90;99.90
75321;DHT22;63920;52.130;5.584;2022-12-24T09:02:19;9.80;99.90
75321;DHT22;63920;52.130;5.584;2022-12-24T09:04:45;9.80;99.90
75321;DHT22;63920;52.130;5.584;2022-12-24T09:07:10;9.80;99.90
75321;DHT22;63920;52.130;5.584;2022-12-24T09:09:37;9.80;99.90
75321;DHT22;63920;52.130;5.584;2022-12-24T09:12:05;9.80;99.90
75321;DHT22;63920;52.130;5.584;2022-12-24T09:14:31;9.90;99.90
75321;DHT22;63920;52.130;5.584;2022-12-24T09:16:57;9.80;99.90
75321;DHT22;63920;52.130;5.584;2022-12-24T09:19:23;9.90;99.90
75321;DHT22;63920;52.130;5.584;2022-12-24T09:21:49;9.90;99.90
75321;DHT22;63920;52.130;5.584;2022-12-24T09:24:15;9.80;99.90
75321;DHT22;63920;52.130;5.584;2022-12-24T09:26:40;9.90;99.90
75321;DHT22;63920;52.130;5.584;2022-12-24T09:29:07;9.90;99.90
75321;DHT22;63920;52.130;5.584;2022-12-24T09:31:32;9.90;99.90
75321;DHT22;63920;52.130;5.584;2022-12-24T09:33:58;9.90;99.90
75321;DHT22;63920;52.130;5.584;2022-12-24T09:36:25;10.00;99.90
75321;DHT22;63920;52.130;5.584;2022-12-24T09:38:50;10.00;99.90
75321;DHT22;63920;52.130;5.584;2022-12-24T09:43:58;10.00;99.90
75321;DHT22;63920;52.130;5.584;2022-12-24T09:46:30;10.00;99.90
75321;DHT22;63920;52.130;5.584;2022-12-24T09:49:01;10.00;99.90
75321;DHT22;63920;52.130;5.584;2022-12-24T09:51:39;10.10;99.90
75321;DHT22;63920;52.130;5.584;2022-12-24T09:54:32;10.10;99.90
75321;DHT22;63920;52.130;5.584;2022-12-24T09:57:05;10.10;99.90
75321;DHT22;63920;52.130;5.584;2022-12-24T09:59:43;10.10;99.90
75321;DHT22;63920;52.130;5.584;2022-12-24T10:02:11;10.00;99.90
75321;DHT22;63920;52.130;5.584;2022-12-24T10:04:38;10.10;99.90
75321;DHT22;63920;52.130;5.584;2022-12-24T10:07:34;10.10;99.90
75321;DHT22;63920;52.130;5.584;2022-12-24T10:18:15;10.10;99.90
75321;DHT22;63920;52.130;5.584;2022-12-24T10:21:13;10.10;99.90
75321;DHT22;63920;52.130;5.584;2022-12-24T10:23:46;10.00;99.90
75321;DHT22;63920;52.130;5.584;2022-12-24T10:29:04;10.10;99.90
75321;DHT22;63920;52.130;5.584;2022-12-24T10:34:29;10.20;99.90
75321;DHT22;63920;52.130;5.584;2022-12-24T10:36:56;10.20;99.90
75321;DHT22;63920;52.130;5.584;2022-12-24T10:39:24;10.20;99.90
75321;DHT22;63920;52.130;5.584;2022-12-24T10:41:53;10.20;99.90
75321;DHT22;63920;52.130;5.584;2022-12-24T10:44:30;10.20;99.90
75321;DHT22;63920;52.130;5.584;2022-12-24T10:46:57;10.20;99.90
75321;DHT22;63920;52.130;5.584;2022-12-24T10:49:40;10.20;99.90
75321;DHT22;63920;52.130;5.584;2022-12-24T10:52:14;10.20;99.90
75321;DHT22;63920;52.130;5.584;2022-12-24T10:57:29;10.20;99.90
75321;DHT22;63920;52.130;5.584;2022-12-24T10:59:55;10.30;99.90
75321;DHT22;63920;52.130;5.584;2022-12-24T11:02:33;10.60;99.90
75321;DHT22;63920;52.130;5.584;2022-12-24T11:05:00;10.30;99.90
75321;DHT22;63920;52.130;5.584;2022-12-24T11:07:28;10.30;99.90
75321;DHT22;63920;52.130;5.584;2022-12-24T11:12:26;10.40;99.90
75321;DHT22;63920;52.130;5.584;2022-12-24T11:15:15;10.40;99.90
75321;DHT22;63920;52.130;5.584;2022-12-24T11:17:51;10.30;99.90
75321;DHT22;63920;52.130;5.584;2022-12-24T11:20:17;10.30;99.90
75321;DHT22;63920;52.130;5.584;2022-12-24T11:22:48;10.30;99.90
75321;DHT22;63920;52.130;5.584;2022-12-24T11:25:23;10.30;99.90
75321;DHT22;63920;52.130;5.584;2022-12-24T11:27:52;10.30;99.90
75321;DHT22;63920;52.130;5.584;2022-12-24T11:30:22;10.30;99.90
75321;DHT22;63920;52.130;5.584;2022-12-24T11:32:50;10.30;99.90
75321;DHT22;63920;52.130;5.584;2022-12-24T11:35:40;10.30;99.90
75321;DHT22;63920;52.130;5.584;2022-12-24T11:38:11;10.40;99.90
75321;DHT22;63920;52.130;5.584;2022-12-24T11:40:43;10.40;99.90
75321;DHT22;63920;52.130;5.584;2022-12-24T11:43:18;10.30;99.90
75321;DHT22;63920;52.130;5.584;2022-12-24T11:45:53;10.40;99.90
75321;DHT22;63920;52.130;5.584;2022-12-24T11:48:33;10.30;99.90
75321;DHT22;63920;52.130;5.584;2022-12-24T11:51:04;10.30;99.90
75321;DHT22;63920;52.130;5.584;2022-12-24T11:53:50;10.30;99.90
75321;DHT22;63920;52.130;5.584;2022-12-24T11:56:42;10.20;99.90
75321;DHT22;63920;52.130;5.584;2022-12-24T11:59:32;10.30;99.90
75321;DHT22;63920;52.130;5.584;2022-12-24T12:04:42;10.30;99.90
75321;DHT22;63920;52.130;5.584;2022-12-24T12:07:29;10.40;99.90
75321;DHT22;63920;52.130;5.584;2022-12-24T12:10:06;10.40;99.90
75321;DHT22;63920;52.130;5.584;2022-12-24T12:12:37;10.40;99.90
75321;DHT22;63920;52.130;5.584;2022-12-24T12:15:17;10.30;99.90
75321;DHT22;63920;52.130;5.584;2022-12-24T12:17:55;10.40;99.90
75321;DHT22;63920;52.130;5.584;2022-12-24T12:23:22;10.40;99.90
75321;DHT22;63920;52.130;5.584;2022-12-24T12:26:28;10.40;99.90
75321;DHT22;63920;52.130;5.584;2022-12-24T12:31:55;10.40;99.90
75321;DHT22;63920;52.130;5.584;2022-12-24T12:34:34;10.30;99.90
75321;DHT22;63920;52.130;5.584;2022-12-24T12:37:13;10.30;99.90
75321;DHT22;63920;52.130;5.584;2022-12-24T12:39:41;10.30;99.90
75321;DHT22;63920;52.130;5.584;2022-12-24T12:42:20;10.30;99.90
75321;DHT22;63920;52.130;5.584;2022-12-24T12:50:28;10.30;99.90
75321;DHT22;63920;52.130;5.584;2022-12-24T12:53:29;10.30;99.90
75321;DHT22;63920;52.130;5.584;2022-12-24T12:56:09;10.30;99.90
75321;DHT22;63920;52.130;5.584;2022-12-24T13:01:28;10.40;99.90
75321;DHT22;63920;52.130;5.584;2022-12-24T13:12:32;10.40;99.90
75321;DHT22;63920;52.130;5.584;2022-12-24T13:18:15;10.40;99.90
75321;DHT22;63920;52.130;5.584;2022-12-24T13:20:47;10.40;99.90
75321;DHT22;63920;52.130;5.584;2022-12-24T13:23:24;10.40;99.90
75321;DHT22;63920;52.130;5.584;2022-12-24T13:25:52;10.40;99.90
75321;DHT22;63920;52.130;5.584;2022-12-24T13:49:41;10.50;99.90
75321;DHT22;63920;52.130;5.584;2022-12-24T13:52:26;10.50;99.90
75321;DHT22;63920;52.130;5.584;2022-12-24T13:57:43;10.60;99.90
75321;DHT22;63920;52.130;5.584;2022-12-24T14:00:32;10.60;99.90
75321;DHT22;63920;52.130;5.584;2022-12-24T14:03:27;10.60;99.90
75321;DHT22;63920;52.130;5.584;2022-12-24T14:06:01;10.60;99.90
75321;DHT22;63920;52.130;5.584;2022-12-24T14:08:34;10.60;99.90
75321;DHT22;63920;52.130;5.584;2022-12-24T14:16:22;10.60;99.90
75321;DHT22;63920;52.130;5.584;2022-12-24T14:21:54;10.40;99.90
75321;DHT22;63920;52.130;5.584;2022-12-24T14:24:26;10.40;99.90
75321;DHT22;63920;52.130;5.584;2022-12-24T14:26:57;10.30;99.90
75321;DHT22;63920;52.130;5.584;2022-12-24T14:31:56;10.40;99.90
75321;DHT22;63920;52.130;5.584;2022-12-24T14:34:22;10.30;99.90
75321;DHT22;63920;52.130;5.584;2022-12-24T14:36:50;10.40;99.90
75321;DHT22;63920;52.130;5.584;2022-12-24T14:39:37;10.30;99.90
75321;DHT22;63920;52.130;5.584;2022-12-24T14:42:24;10.30;99.90
75321;DHT22;63920;52.130;5.584;2022-12-24T14:48:16;10.30;99.90
75321;DHT22;63920;52.130;5.584;2022-12-24T14:51:07;10.30;99.90
75321;DHT22;63920;52.130;5.584;2022-12-24T14:56:26;10.20;99.90
75321;DHT22;63920;52.130;5.584;2022-12-24T14:58:52;10.20;99.90
75321;DHT22;63920;52.130;5.584;2022-12-24T15:01:23;10.20;99.90
75321;DHT22;63920;52.130;5.584;2022-12-24T15:04:00;10.20;99.90
75321;DHT22;63920;52.130;5.584;2022-12-24T15:06:27;10.20;99.90
75321;DHT22;63920;52.130;5.584;2022-12-24T15:08:53;10.20;99.90
75321;DHT22;63920;52.130;5.584;2022-12-24T15:11:21;10.10;99.90
75321;DHT22;63920;52.130;5.584;2022-12-24T15:13:49;10.10;99.90
75321;DHT22;63920;52.130;5.584;2022-12-24T15:16:22;10.00;99.90
75321;DHT22;63920;52.130;5.584;2022-12-24T15:18:51;10.00;99.90
75321;DHT22;63920;52.130;5.584;2022-12-24T15:21:29;10.10;99.90
75321;DHT22;63920;52.130;5.584;2022-12-24T15:23:56;10.00;99.90
75321;DHT22;63920;52.130;5.584;2022-12-24T15:26:28;10.00;99.90
75321;DHT22;63920;52.130;5.584;2022-12-24T15:28:57;10.00;99.90
75321;DHT22;63920;52.130;5.584;2022-12-24T15:31:25;9.90;99.90
75321;DHT22;63920;52.130;5.584;2022-12-24T15:33:53;9.90;99.90
75321;DHT22;63920;52.130;5.584;2022-12-24T15:36:35;9.90;99.90
75321;DHT22;63920;52.130;5.584;2022-12-24T15:39:14;9.80;99.90
75321;DHT22;63920;52.130;5.584;2022-12-24T15:41:42;9.80;99.90
75321;DHT22;63920;52.130;5.584;2022-12-24T15:44:31;9.70;99.90
75321;DHT22;63920;52.130;5.584;2022-12-24T15:46:59;9.70;99.90
75321;DHT22;63920;52.130;5.584;2022-12-24T15:49:27;9.70;99.90
75321;DHT22;63920;52.130;5.584;2022-12-24T15:52:02;9.70;99.90
75321;DHT22;63920;52.130;5.584;2022-12-24T15:54:28;9.60;99.90
75321;DHT22;63920;52.130;5.584;2022-12-24T15:56:53;9.60;99.90
75321;DHT22;63920;52.130;5.584;2022-12-24T15:59:37;9.60;99.90
75321;DHT22;63920;52.130;5.584;2022-12-24T16:02:39;9.60;99.90
75321;DHT22;63920;52.130;5.584;2022-12-24T16:10:32;9.50;99.90
75321;DHT22;63920;52.130;5.584;2022-12-24T16:12:59;9.50;99.90
75321;DHT22;63920;52.130;5.584;2022-12-24T16:15:24;9.50;99.90
75321;DHT22;63920;52.130;5.584;2022-12-24T16:17:50;9.50;99.90
75321;DHT22;63920;52.130;5.584;2022-12-24T16:20:20;9.50;99.90
75321;DHT22;63920;52.130;5.584;2022-12-24T16:22:48;9.40;99.90
75321;DHT22;63920;52.130;5.584;2022-12-24T16:27:42;9.40;99.90
75321;DHT22;63920;52.130;5.584;2022-12-24T16:30:10;9.30;99.90
75321;DHT22;63920;52.130;5.584;2022-12-24T16:32:36;9.30;99.90
75321;DHT22;63920;52.130;5.584;2022-12-24T16:35:05;9.20;99.90
75321;DHT22;63920;52.130;5.584;2022-12-24T16:37:32;9.30;99.90
75321;DHT22;63920;52.130;5.584;2022-12-24T16:39:59;9.20;99.90
75321;DHT22;63920;52.130;5.584;2022-12-24T16:42:25;9.20;99.90
75321;DHT22;63920;52.130;5.584;2022-12-24T16:45:09;9.20;99.90
75321;DHT22;63920;52.130;5.584;2022-12-24T16:47:35;9.10;99.90
75321;DHT22;63920;52.130;5.584;2022-12-24T16:50:05;9.30;99.90
75321;DHT22;63920;52.130;5.584;2022-12-24T16:52:32;9.20;99.90
75321;DHT22;63920;52.130;5.584;2022-12-24T16:54:58;9.10;99.90
75321;DHT22;63920;52.130;5.584;2022-12-24T16:57:24;9.10;99.90
75321;DHT22;63920;52.130;5.584;2022-12-24T16:59:51;9.10;99.90
75321;DHT22;63920;52.130;5.584;2022-12-24T17:02:19;9.00;99.90
75321;DHT22;63920;52.130;5.584;2022-12-24T17:04:45;9.00;99.90
75321;DHT22;63920;52.130;5.584;2022-12-24T17:07:12;8.90;99.90
75321;DHT22;63920;52.130;5.584;2022-12-24T17:09:38;8.80;99.90
75321;DHT22;63920;52.130;5.584;2022-12-24T17:12:04;8.80;99.90
75321;DHT22;63920;52.130;5.584;2022-12-24T17:14:30;8.70;99.90
75321;DHT22;63920;52.130;5.584;2022-12-24T17:16:55;8.70;99.90
75321;DHT22;63920;52.130;5.584;2022-12-24T17:19:21;8.60;99.90
75321;DHT22;63920;52.130;5.584;2022-12-24T17:21:46;8.50;99.90
75321;DHT22;63920;52.130;5.584;2022-12-24T17:24:12;8.50;99.90
75321;DHT22;63920;52.130;5.584;2022-12-24T17:26:39;8.50;99.90
75321;DHT22;63920;52.130;5.584;2022-12-24T17:29:04;8.50;99.90
75321;DHT22;63920;52.130;5.584;2022-12-24T17:31:31;8.60;99.90
75321;DHT22;63920;52.130;5.584;2022-12-24T17:33:57;8.50;99.90
75321;DHT22;63920;52.130;5.584;2022-12-24T17:36:23;8.40;99.90
75321;DHT22;63920;52.130;5.584;2022-12-24T17:38:48;8.40;99.90
75321;DHT22;63920;52.130;5.584;2022-12-24T17:41:16;8.40;99.90
75321;DHT22;63920;52.130;5.584;2022-12-24T17:43:42;8.30;99.90
75321;DHT22;63920;52.130;5.584;2022-12-24T17:46:11;8.30;99.90
75321;DHT22;63920;52.130;5.584;2022-12-24T17:48:37;8.30;99.90
75321;DHT22;63920;52.130;5.584;2022-12-24T17:51:09;8.20;99.90
75321;DHT22;63920;52.130;5.584;2022-12-24T17:53:36;8.20;99.90
75321;DHT22;63920;52.130;5.584;2022-12-24T17:56:02;8.20;99.90
75321;DHT22;63920;52.130;5.584;2022-12-24T17:58:28;8.20;99.90
75321;DHT22;63920;52.130;5.584;2022-12-24T18:00:55;8.20;99.90
75321;DHT22;63920;52.130;5.584;2022-12-24T18:03:21;8.20;99.90